National Weather Service United States Department of Commerce

Southern Icing Event Coming to an End; Arctic Air Across the North

As icing transitions to rain and then ends across the South into the Mid-South, hazards will continue because thawing ice could still cause trees and tree limbs to break. A strong Arctic Front will bring cold temperatures and dangerous wind chills to -50 or colder across the North tier. Heavy snow can be expected across the east-central parts of Alaska. Read More >

Aviation Forecast Discussion

.AVIATION /15Z THURSDAY THROUGH MONDAY/...
The following discussion is for KPHL, KPNE, KTTN, KABE, KRDG, 
KILG, KMIV, KACY and surrounding areas.

Today...VFR with unrestricted visibility under just some high 
clouds. Winds becoming west-southwest up to around 10 kt by 18Z.
High confidence.

Tonight...Mainly VFR at the TAF sites. West-southwest winds 5 to 10 
kt during the evening will shift toward the northwest at 10 to 15 kt 
overnight and toward Friday morning as an arctic cold front pushes 
in. Some low ceilings and snow showers will probably affect 
northwest portions of our area around the Poconos overnight. 
Moderate confidence.

Outlook....

Friday through Friday night...VFR. Northwest winds 15-25 kts 
with gusts 25-35 kts. High confidence.

Saturday...VFR. Northwest winds 10-15 kts backing and becoming
southwest. High confidence.

Saturday night through Sunday...VFR. Southwest winds of 
10-15 kts increasing to 15-20 kts Sunday afternoon with gusts 
up to 25 kts. Moderate confidence.

Sunday night through Monday...VFR. Southwest winds of 10-15 kts
veering and becoming northwest. Gusts around 20 kts possible 
Monday. Low confidence.

&&

Latest PHL Terminal Aerodrome Forecast (TAF)

FTNA35 KPHL 021122 RRC
KPHL 021120Z 0212/0318 26005KT P6SM BKN220 OVC260
     FM021500 24008KT P6SM SCT250
     FM031000 30012G18KT P6SM BKN250

Latest Area Terminal Aerodrome Forecasts (TAFs)

FTUS80 KPNE 060524 RRE
KPNE 060520Z 0606/0706 VRB03KT 5SM -RA BR OVC040
      TEMPO 0606/0608 3SM RA BR OVC004
     FM060900 VRB03KT 4SM BR OVC004
     FM061500 31005KT P6SM BKN025
     FM061700 30010KT P6SM VCSH BKN035 OVC060
     FM061900 30012G20KT P6SM BKN040
     FM070200 29005KT P6SM BKN200

FTUS80 KTTN 060524 RRF
KTTN 060520Z 0606/0706 VRB03KT 4SM -RA BR OVC008
      TEMPO 0606/0609 2SM RA BR OVC004
     FM061000 VRB03KT 4SM BR OVC004
     FM061500 31005KT P6SM BKN020
     FM061700 30010KT P6SM VCSH BKN030 OVC050
     FM061900 30012G20KT P6SM BKN040
     FM070300 32005KT P6SM BKN200

FTUS80 KILG 060615 AAA
KILG 060613Z 0606/0706 31005KT P6SM SCT012 BKN045
      TEMPO 0609/0612 4SM BR
     FM061300 29005KT P6SM BKN040
     FM061500 27008KT P6SM VCSH BKN045
     FM061700 30012G20KT P6SM BKN050
     FM062300 29010KT P6SM BKN200

FTUS80 KRDG 060524 RRE
KRDG 060520Z 0606/0706 VRB03KT P6SM VCSH OVC040
     FM060900 VRB02KT 4SM BR SCT015 BKN035
     FM061300 28006KT P6SM BKN040
      TEMPO 0614/0616 -SHRA
     FM061600 30012G18KT P6SM BKN050
     FM070100 29006KT P6SM BKN200

FTUS80 KABE 060524
KABE 060520Z 0606/0706 VRB03KT 6SM -SHRA OVC040
     FM060900 VRB02KT 3SM BR SCT012 BKN025
     FM061300 28006KT P6SM BKN030
      TEMPO 0614/0616 -SHRA
     FM061700 30012G20KT P6SM BKN045
     FM070200 28007KT P6SM BKN200

FTNA35 KACY 060526 RRB
KACY 060520Z 0606/0706 VRB03KT 4SM BR OVC004
     FM061200 27003KT 2SM BR OVC002
     FM061600 25006KT P6SM BKN010 OVC030
     FM061800 29012G18KT P6SM BKN045
     FM062300 29005KT P6SM BKN200 AMD NOT SKED

FTUS51 KMIV 060524
KMIV 060520Z 0606/0706 VRB03KT 5SM BR OVC003
     FM061200 27003KT 4SM BR OVC006
     FM061600 25006KT P6SM BKN012 OVC030
     FM061800 29012G18KT P6SM BKN045
     FM062300 29005KT P6SM BKN200

FTUS80 KEWR 060603 AAA
KEWR 060559Z 0606/0712 07006KT 5SM -RA BR OVC004
     FM060800 04005KT 3SM -RA BR OVC006
      TEMPO 0608/0612 2SM -RA BR OVC004
     FM061400 01004KT 6SM BR VCSH BKN008 OVC015
     FM061600 32005KT 4SM BR VCSH OVC012
     FM061900 29011KT P6SM SCT015 BKN035
     FM070500 29007KT P6SM SCT040

FTUS80 KLGA 060603 AAA
KLGA 060559Z 0606/0712 07008KT 6SM -RA BR OVC008
     FM060800 05006KT 3SM -RA BR OVC006
      TEMPO 0608/0612 2SM -RA BR OVC004
     FM061400 35007KT 6SM BR VCSH OVC008
     FM061600 33008KT 6SM BR VCSH OVC015
     FM062000 31009KT P6SM SCT015 OVC035
     FM070600 31008KT P6SM BKN040

FTNA35 KJFK 060608
KJFK 060559Z 0606/0712 09007KT 6SM -RA BR OVC006
     TEMPO 0606/0609 2SM -RA BR OVC004
     FM060900 04005KT 4SM -RA BR OVC006
     TEMPO 0609/0612 2SM -RA BR OVC004
     FM061400 02005KT 6SM BR VCSH OVC008
     FM061600 34007KT 6SM BR VCSH BKN008 OVC015
     FM062000 30010KT P6SM SCT015 BKN035
     FM070600 31008KT P6SM BKN040

FTUS41 KMDT 060527
KMDT 060526Z 0606/0706 30004KT P6SM OVC070
     FM061700 30012G19KT P6SM OVC050

FTUS80 KBWI 060551
KBWI 060549Z 0606/0712 35005KT P6SM BKN040
     FM061200 28007KT P6SM BKN070
     FM061500 29013G21KT P6SM BKN060
     FM062300 29006KT P6SM SCT060

FTUS80 KIAD 060551
KIAD 060549Z 0606/0712 03006KT P6SM SCT090
     FM061200 30007KT P6SM BKN070
     FM061500 30013G21KT P6SM SCT060
     FM062300 30005KT P6SM SCT070

FTUS51 KDCA 060551
KDCA 060549Z 0606/0712 36009KT P6SM BKN110
     FM061200 27006KT P6SM BKN070
     FM061500 30013G21KT P6SM BKN060
     FM062300 30006KT P6SM SCT070

Raw METARs for WFO PHI CWA and Surrounding Areas

--TAFs--TimeTTdRHHIWCDirWindGPKVisWxPcpClouds
KRDG1510Z32124425290710CLR
KABE1510Z30124723230710CLR
KTTN1453Z301859calm10CLR
KPNE1510Z341241calm10CLR
KPHL1510Z34124129250510SCT042
KILG1510Z34124129280610OVC048
KMIV1510Z321960calm10CLR
KACY1510Z341851250310CLR
--PA--TimeTTdRHHIWCDirWindGPKVisWxPcpClouds
KMPO1510Z2195892501210CLR
K22N1455Z251669calm10CLR
KUKT1455Z281455calm10CLR
KCKZ1455Z281047260310CLR
KDYL1510Z301451270310CLR
KLOM1455Z301452230310CLR
KOQN1515Z32104010BKN039
KMQS1455Z30104323320710OVC038
--NJ--TimeTTdRHHIWCDirWindGPKVisWxPcpClouds
KFWN1510Z28165920210810CLR
K12N1454Z291556VRB3
KMMU1445Z30185925220510BKN250
KSMQ1510Z30196425170510CLR
KBLM1510Z230610CLR
KNEL1500Z34144429VRB6CLR
KWRI1455Z34154629290610CLR
KVAY1510Z341648calm10CLR
KWWD1510Z361441calm10CLR
--DE--TimeTTdRHHIWCDirWindGPKVisWxPcpClouds
KDOV1455Z331549calm10BKN043
OVC055
KGED1510Z361952calm10FEW120
--MD--TimeTTdRHHIWCDirWindGPKVisWxPcpClouds
KW291505Z34134110OVC042
KESN1445Z321651calm10BKN036
OVC044
KCGE1505Z342365calm10OVC043
--OKXTAF--TimeTTdRHHIWCDirWindGPKVisWxPcpClouds
KTEB1510Z32124424220910CLR
KEWR1510Z361035282301210CLR
KLGA1510Z34124127210910CLR
KJFK1505Z34185128230710CLR
KISP1505Z32124426190610CLR
KHPN1500Z301451200310CLR
KSWF1445Z27145919240810BKN120
KBDR1505Z301964250310CLR
KGON1510Z341648calm10CLR
--LWXTAF--TimeTTdRHHIWCDirWindGPKVisWxPcpClouds
KMTN1453Z321244calm10OVC047
KBWI1510Z36123840310OVC035
KDCA1510Z
KIAD1510Z341956calm10OVC030
KMRB1510Z301247calm10CLR
KCHO1510Z36308118034 BROVC004
-Misc-TimeTTdRHHIWCDirWindGPKVisWxPcpClouds
KCDW1510Z30124725240510CLR
KLNS1510Z32124426300610CLR
KHZL1455Z271050260310CLR
KAVP1510Z271254182301010CLR
KCXY1510Z34124127270810CLR
KMDT1510Z301247290310CLR
KUNV1453Z271050162401210CLR
KTHV1510Z32124427260510CLR
KSEG1510Z30145125230510CLR
KMUI1455Z30124722260810SCT250
KAPG1458Z311857calm10OVC048
KNHK1452Z39225035100510OVC040
KOXB1510Z36236010OVC110
KSBY1510Z342570calm10OVC120
KWAL1510Z361952calm10SCT110
KBGM1510Z1996362301310SCT095
KNYC1451Z34113829VRB610CLR
KMSV1510Z271459250310CLR
KMGJ1510Z271664182201010CLR
KPOU1510Z28125121220610CLR

 

KDIX Radar Loop

KDIX Radar

KDOX Radar Loop

KDOX Radar

Visible Satellite

Visible ImageVisible Loop

Infrared Satellite

Infrared ImageInfrared Loop

ZNY Briefing

ZNY Briefing

ZNY SWAP Statement

ZNY SWAP Statement

KPHL Wind Speed Outlook

KPHL Wind Outlook

KPHL Icing Outlook

KPHL Icing  Outlook

KPHL Compression Outlook

KPHL Compression Outlook

ZNY Day 1 SWAP

KPHL Day 1 SWAP

ZNY Day 2 SWAP

KPHL Day 2 SWAP

Turbulence PIREPs

Turbulence PIREPs

Icing PIREPs

Icing PIREPs

Weather/Sky PIREPs

Weather/Sky PIREPs

Current AIRMETs/SIGMETs

Current AIRMETs/SIGMETs

Sierra (Mountains/IFR) AIRMETs

Current 3-hr Forecast 6-hr Forecast

No Plot Available

No Plot Available

No Plot Available

9-hr Forecast 12-hr Forecast

No Plot Available

No Plot Available

Tango (Turbulence/LLWS) AIRMETs

Current 3-hr Forecast 6-hr Forecast

No Plot Available

No Plot Available

No Plot Available

9-hr Forecast 12-hr Forecast

No Plot Available

No Plot Available

Icing AIRMETs

Current 3-hr Forecast 6-hr Forecast

No Plot Available

No Plot Available

No Plot Available

9-hr Forecast 12-hr Forecast

No Plot Available

No Plot Available

Freezing Level AIRMETs

Current 3-hr Forecast 6-hr Forecast

No Plot Available

No Plot Available

No Plot Available

9-hr Forecast 12-hr Forecast

No Plot Available

No Plot Available